Time;durP1;ratioP1;P1;durP2;ratioP2;P2;SDS_P1;SDS_P2;PMS_P1;PMS_P2;Temp;Humidity;BMP_temperature;BMP_pressure;BME280_temperature;BME280_humidity;BME280_pressure;Samples;Min_cycle;Max_cycle;Signal;HPM_P1;HPM_P2
2022/06/09 00:01:45;;;;;;;;;;;;;;;16.26;100.00;97352.24;1781207;79;20222;-84
2022/06/09 00:04:19;;;;;;;;;;;;;;;16.27;100.00;97349.73;1781505;80;20191;-86
2022/06/09 00:06:57;;;;;;;;;;;;;;;16.26;100.00;97348.94;1759120;80;20189;-85
2022/06/09 00:09:25;;;;;;;;;;;;;;;16.26;100.00;97350.88;1767418;80;21073;-86
2022/06/09 00:11:51;;;;;;;;;;;;;;;16.23;100.00;97340.59;1750974;80;20173;-87
2022/06/09 00:14:17;;;;;;;;;;;;;;;16.20;100.00;97333.06;1781559;80;20218;-84
2022/06/09 00:16:43;;;;;;;;;;;;;;;16.19;100.00;97319.97;1781617;79;20136;-83
2022/06/09 00:19:09;;;;;;;;;;;;;;;16.23;100.00;97318.72;1760696;80;20258;-87
2022/06/09 00:21:35;;;;;;;;;;;;;;;16.24;100.00;97303.37;1781548;80;21055;-87
2022/06/09 00:24:01;;;;;;;;;;;;;;;16.23;100.00;97298.22;1781307;80;20178;-84
2022/06/09 00:26:28;;;;;;;;;;;;;;;16.19;100.00;97289.89;1783716;80;20195;-84
2022/06/09 00:28:54;;;;;;;;;;;;;;;16.17;100.00;97291.38;1781521;80;20573;-87
2022/06/09 00:31:20;;;;;;;;;;;;;;;16.09;100.00;97294.41;1781546;80;20572;-87
2022/06/09 00:33:46;;;;;;;;;;;;;;;16.03;100.00;97306.08;1781622;79;21122;-87
2022/06/09 00:36:12;;;;;;;;;;;;;;;15.97;100.00;97297.84;1781775;80;20219;-86
2022/06/09 00:38:38;;;;;;;;;;;;;;;15.98;100.00;97301.38;1781440;80;20210;-86
2022/06/09 00:41:04;;;;;;;;;;;;;;;15.97;100.00;97286.11;1770968;80;20699;-87
2022/06/09 00:43:30;;;;;;;;;;;;;;;15.97;100.00;97275.98;1739934;80;20322;-84
2022/06/09 00:46:12;;;;;;;;;;;;;;;15.98;100.00;97272.14;1780849;80;21768;-87
2022/06/09 00:48:53;;;;;;;;;;;;;;;15.99;100.00;97263.38;1752119;79;20194;-87
2022/06/09 00:51:40;;;;;;;;;;;;;;;16.03;100.00;97245.17;1781354;80;20176;-85
2022/06/09 00:54:15;;;;;;;;;;;;;;;15.98;100.00;97228.97;1781437;80;20196;-83
2022/06/09 00:56:45;;;;;;;;;;;;;;;15.99;100.00;97211.47;1781173;79;20184;-87
2022/06/09 00:59:12;;;;;;;;;;;;;;;16.01;100.00;97207.26;1781558;80;21664;-85
2022/06/09 01:01:39;;;;;;;;;;;;;;;16.02;100.00;97214.89;1781623;79;20156;-87
2022/06/09 01:04:07;;;;;;;;;;;;;;;15.99;100.00;97219.66;1763563;80;20184;-87
2022/06/09 01:06:36;;;;;;;;;;;;;;;15.96;100.00;97218.37;1781955;80;20199;-83
2022/06/09 01:09:11;;;;;;;;;;;;;;;15.94;100.00;97228.84;1781319;80;20195;-83
2022/06/09 01:11:37;;;;;;;;;;;;;;;15.94;100.00;97232.95;1781855;80;21340;-84
2022/06/09 01:14:03;;;;;;;;;;;;;;;15.94;100.00;97237.04;1760679;80;20206;-86
2022/06/09 01:16:38;;;;;;;;;;;;;;;15.91;100.00;97230.09;1758215;79;20186;-84
2022/06/09 01:19:10;;;;;;;;;;;;;;;15.90;100.00;97232.03;1782787;80;20219;-83
2022/06/09 01:22:02;;;;;;;;;;;;;;;15.86;100.00;97232.44;1781724;79;20297;-84
2022/06/09 01:24:38;;;;;;;;;;;;;;;15.80;100.00;97225.00;1773135;80;21296;-84
2022/06/09 01:27:28;;;;;;;;;;;;;;;15.80;100.00;97233.77;1781538;79;20156;-83
2022/06/09 01:30:03;;;;;;;;;;;;;;;15.75;100.00;97225.22;1766472;80;20185;-87
2022/06/09 01:32:34;;;;;;;;;;;;;;;15.76;100.00;97230.11;1775604;79;20205;-84
2022/06/09 01:35:09;;;;;;;;;;;;;;;15.76;100.00;97228.74;1780765;80;20172;-84
2022/06/09 01:37:38;;;;;;;;;;;;;;;15.78;100.00;97234.10;1781859;79;20985;-87
2022/06/09 01:40:06;;;;;;;;;;;;;;;15.79;100.00;97243.09;1780586;80;20498;-86
2022/06/09 01:42:34;;;;;;;;;;;;;;;15.77;100.00;97246.16;1781997;79;20145;-84
2022/06/09 01:45:03;;;;;;;;;;;;;;;15.76;100.00;97245.13;1781904;80;20184;-83
2022/06/09 01:47:38;;;;;;;;;;;;;;;15.73;100.00;97251.27;1782148;79;20171;-83
2022/06/09 01:50:06;;;;;;;;;;;;;;;15.71;100.00;97245.31;1764647;80;21163;-86
2022/06/09 01:52:32;;;;;;;;;;;;;;;15.70;100.00;97234.95;1776327;80;20215;-83
2022/06/09 01:54:57;;;;;;;;;;;;;;;15.70;100.00;97232.80;1758000;80;20300;-84
2022/06/09 01:57:28;;;;;;;;;;;;;;;15.67;100.00;97233.47;1773819;80;20254;-86
2022/06/09 02:00:00;;;;;;;;;;;;;;;15.65;100.00;97239.27;1783222;80;20443;-86
2022/06/09 02:02:31;;;;;;;;;;;;;;;15.63;100.00;97232.52;1755491;80;21106;-87
2022/06/09 02:05:00;;;;;;;;;;;;;;;15.62;100.00;97222.16;1781108;80;20167;-84
2022/06/09 02:07:27;;;;;;;;;;;;;;;15.60;100.00;97227.13;1781608;80;20192;-84
2022/06/09 02:09:53;;;;;;;;;;;;;;;15.53;100.00;97222.19;1767731;80;20835;-86
2022/06/09 02:12:22;;;;;;;;;;;;;;;15.49;100.00;97225.92;1766730;80;20197;-84
2022/06/09 02:14:49;;;;;;;;;;;;;;;15.43;100.00;97222.58;1763700;80;21115;-86
2022/06/09 02:17:15;;;;;;;;;;;;;;;15.40;100.00;97230.07;1781294;80;20256;-83
2022/06/09 02:19:41;;;;;;;;;;;;;;;15.31;100.00;97224.42;1770703;80;20253;-84
2022/06/09 02:22:08;;;;;;;;;;;;;;;15.25;100.00;97222.44;1768832;79;20210;-83
2022/06/09 02:24:34;;;;;;;;;;;;;;;15.21;100.00;97222.31;1781701;80;20133;-84
2022/06/09 02:27:00;;;;;;;;;;;;;;;15.21;100.00;97222.31;1781736;79;21102;-83
2022/06/09 02:29:26;;;;;;;;;;;;;;;15.21;100.00;97225.04;1755563;80;20257;-84
2022/06/09 02:31:51;;;;;;;;;;;;;;;15.19;100.00;97224.55;1757577;80;20241;-86
2022/06/09 02:34:17;;;;;;;;;;;;;;;15.18;100.00;97233.06;1773307;80;20182;-87
2022/06/09 02:36:43;;;;;;;;;;;;;;;15.14;100.00;97231.56;1760141;80;20256;-87
2022/06/09 02:39:09;;;;;;;;;;;;;;;15.09;100.00;97223.55;1779176;80;21073;-84
2022/06/09 02:41:35;;;;;;;;;;;;;;;15.05;100.00;97234.90;1781625;79;20167;-84
2022/06/09 02:44:00;;;;;;;;;;;;;;;15.02;100.00;97240.98;1782192;80;20274;-84
2022/06/09 02:46:26;;;;;;;;;;;;;;;14.98;100.00;97248.24;1756247;80;20195;-86
2022/06/09 02:48:53;;;;;;;;;;;;;;;14.92;100.00;97242.72;1781533;80;20147;-87
2022/06/09 02:51:27;;;;;;;;;;;;;;;14.88;100.00;97235.77;1782094;80;21083;-84
2022/06/09 02:53:58;;;;;;;;;;;;;;;14.88;100.00;97231.67;1781469;80;20509;-86
2022/06/09 02:56:24;;;;;;;;;;;;;;;14.84;100.00;97232.08;1764882;80;20143;-84
2022/06/09 02:58:50;;;;;;;;;;;;;;;14.84;100.00;97239.45;1740053;80;20202;-84
2022/06/09 03:01:16;;;;;;;;;;;;;;;14.83;100.00;97234.56;1777975;80;20160;-87
2022/06/09 03:03:41;;;;;;;;;;;;;;;14.84;100.00;97233.44;1780086;79;21013;-86
2022/06/09 03:06:08;;;;;;;;;;;;;;;14.87;100.00;97238.83;1775029;80;20214;-83
2022/06/09 03:08:33;;;;;;;;;;;;;;;14.90;100.00;97240.89;1781781;79;20189;-86
2022/06/09 03:10:59;;;;;;;;;;;;;;;14.87;100.00;97240.98;1756903;80;20259;-84
2022/06/09 03:13:25;;;;;;;;;;;;;;;14.87;100.00;97240.19;1781840;79;20179;-83
2022/06/09 03:15:51;;;;;;;;;;;;;;;14.90;100.00;97241.69;1781486;80;21090;-87
2022/06/09 03:18:18;;;;;;;;;;;;;;;14.88;100.00;97242.59;1782064;80;20215;-86
2022/06/09 03:20:44;;;;;;;;;;;;;;;14.90;100.00;97239.52;1757512;80;20197;-86
2022/06/09 03:23:10;;;;;;;;;;;;;;;14.92;100.00;97244.88;1782022;79;20172;-86
2022/06/09 03:25:36;;;;;;;;;;;;;;;14.91;100.00;97241.92;1780977;80;20278;-84
2022/06/09 03:28:01;;;;;;;;;;;;;;;14.91;100.00;97237.83;1781611;80;21089;-87
2022/06/09 03:30:27;;;;;;;;;;;;;;;14.91;100.00;97240.55;1781452;80;20158;-86
2022/06/09 03:32:53;;;;;;;;;;;;;;;14.87;100.00;97238.26;1782859;79;20182;-86
2022/06/09 03:35:18;;;;;;;;;;;;;;;14.89;100.00;97236.00;1774335;80;21700;-84
2022/06/09 03:37:44;;;;;;;;;;;;;;;15.00;100.00;97236.44;1782245;79;20210;-87
2022/06/09 03:40:12;;;;;;;;;;;;;;;15.06;100.00;97234.33;1763454;80;21175;-87
2022/06/09 03:42:38;;;;;;;;;;;;;;;15.16;100.00;97235.33;1753272;80;20187;-85
2022/06/09 03:45:04;;;;;;;;;;;;;;;15.25;100.00;97234.72;1781954;80;20191;-84
2022/06/09 03:47:30;;;;;;;;;;;;;;;15.36;100.00;97234.57;1771707;79;20459;-84
2022/06/09 03:49:56;;;;;;;;;;;;;;;15.44;100.00;97230.99;1763147;80;20825;-84
2022/06/09 03:52:21;;;;;;;;;;;;;;;15.51;100.00;97235.94;1774199;79;21975;-87
2022/06/09 03:54:47;;;;;;;;;;;;;;;15.60;100.00;97233.16;1760593;80;20807;-84
2022/06/09 03:57:13;;;;;;;;;;;;;;;15.73;100.00;97228.05;1781513;80;20746;-87
2022/06/09 03:59:39;;;;;;;;;;;;;;;15.86;100.00;97228.34;1781872;80;20568;-84
2022/06/09 04:02:04;;;;;;;;;;;;;;;15.91;100.00;97229.52;1756531;80;20207;-83
2022/06/09 04:04:30;;;;;;;;;;;;;;;15.96;100.00;97225.20;1781723;80;21139;-83
2022/06/09 04:06:57;;;;;;;;;;;;;;;15.99;100.00;97230.02;1782047;80;20214;-83
2022/06/09 04:09:23;;;;;;;;;;;;;;;16.07;100.00;97230.52;1781982;80;20188;-85
2022/06/09 04:11:49;;;;;;;;;;;;;;;16.16;100.00;97233.75;1781344;80;20801;-87
2022/06/09 04:14:15;;;;;;;;;;;;;;;16.31;100.00;97229.01;1781453;80;20226;-87
2022/06/09 04:16:44;;;;;;;;;;;;;;;16.47;100.00;97232.72;1781982;79;21892;-87
2022/06/09 04:19:11;;;;;;;;;;;;;;;16.62;100.00;97218.98;1781961;80;20482;-84
2022/06/09 04:21:37;;;;;;;;;;;;;;;16.74;100.00;97219.03;1781375;80;20219;-84
2022/06/09 04:24:03;;;;;;;;;;;;;;;16.84;100.00;97212.34;1781819;80;20168;-87
2022/06/09 04:26:31;;;;;;;;;;;;;;;17.00;100.00;97215.98;1781705;79;20208;-86
2022/06/09 04:28:56;;;;;;;;;;;;;;;17.05;100.00;97219.88;1775486;80;21059;-84
2022/06/09 04:31:22;;;;;;;;;;;;;;;17.18;100.00;97224.81;1756471;80;20182;-84
2022/06/09 04:33:51;;;;;;;;;;;;;;;17.20;99.83;97221.16;1752223;79;20287;-87
2022/06/09 04:36:18;;;;;;;;;;;;;;;17.21;99.91;97225.48;1781312;80;20223;-84
2022/06/09 04:38:44;;;;;;;;;;;;;;;17.26;99.52;97229.38;1781037;80;20172;-87
2022/06/09 04:41:10;;;;;;;;;;;;;;;17.25;99.27;97231.86;1757845;80;21148;-84
2022/06/09 04:43:37;;;;;;;;;;;;;;;17.32;99.15;97230.72;1753298;79;20538;-87
2022/06/09 04:46:04;;;;;;;;;;;;;;;17.32;98.96;97236.20;1770969;80;20201;-84
2022/06/09 04:48:30;;;;;;;;;;;;;;;17.42;98.93;97231.63;1767432;80;20164;-84
2022/06/09 04:50:56;;;;;;;;;;;;;;;17.48;97.81;97231.63;1772700;80;20174;-84
2022/06/09 04:53:22;;;;;;;;;;;;;;;17.49;97.99;97235.17;1740160;80;21091;-87
2022/06/09 04:55:48;;;;;;;;;;;;;;;17.66;97.39;97243.14;1776297;80;20270;-87
2022/06/09 04:58:14;;;;;;;;;;;;;;;17.66;96.10;97241.77;1779430;80;20202;-86
2022/06/09 05:00:40;;;;;;;;;;;;;;;17.75;95.73;97242.47;1777735;80;20186;-87
2022/06/09 05:03:11;;;;;;;;;;;;;;;17.71;95.56;97238.84;1760383;80;20175;-88
2022/06/09 05:05:34;;;;;;;;;;;;;;;17.75;95.21;97238.36;1781001;80;21322;-85
2022/06/09 05:08:00;;;;;;;;;;;;;;;17.84;94.70;97236.06;1780336;78;20598;-84
2022/06/09 05:10:27;;;;;;;;;;;;;;;17.88;93.49;97238.36;1768567;79;20164;-87
2022/06/09 05:12:53;;;;;;;;;;;;;;;17.85;93.48;97245.88;1782739;79;20180;-87
2022/06/09 05:15:19;;;;;;;;;;;;;;;17.85;92.82;97248.63;1782364;79;20210;-84
2022/06/09 05:17:45;;;;;;;;;;;;;;;17.82;93.17;97248.75;1767182;78;20581;-87
2022/06/09 05:20:13;;;;;;;;;;;;;;;17.84;93.06;97247.03;1759800;79;21114;-87
2022/06/09 05:22:39;;;;;;;;;;;;;;;17.86;93.32;97252.41;1759010;80;20196;-87
2022/06/09 05:25:06;;;;;;;;;;;;;;;17.97;93.27;97252.72;1766876;80;20494;-88
2022/06/09 05:27:32;;;;;;;;;;;;;;;17.97;93.80;97253.52;1762916;78;20163;-84
2022/06/09 05:29:58;;;;;;;;;;;;;;;18.17;94.21;97258.59;1771961;79;21673;-86
2022/06/09 05:32:24;;;;;;;;;;;;;;;18.43;93.80;97244.45;1781971;79;20238;-84
2022/06/09 05:34:49;;;;;;;;;;;;;;;18.72;93.96;97249.40;1774830;79;20719;-84
2022/06/09 05:37:15;;;;;;;;;;;;;;;18.98;91.03;97262.05;1782020;78;20170;-85
2022/06/09 05:44:50;;;;;;;;;;;;;;;19.08;89.67;97256.03;1782955;79;21057;-87
2022/06/09 05:44:54;;;;;;;;;;;;;;;19.09;89.29;97254.08;1757730;79;20158;-87
2022/06/09 05:47:21;;;;;;;;;;;;;;;19.08;89.70;97248.38;1774276;80;20235;-85
2022/06/09 05:49:52;;;;;;;;;;;;;;;19.14;88.70;97248.31;1775968;79;20190;-84
2022/06/09 05:52:20;;;;;;;;;;;;;;;18.93;88.58;97247.78;1754914;80;20219;-88
2022/06/09 05:54:46;;;;;;;;;;;;;;;18.75;88.39;97247.31;1780641;80;21069;-88
2022/06/09 05:57:11;;;;;;;;;;;;;;;18.51;88.71;97249.56;1777754;79;20258;-84
2022/06/09 05:59:37;;;;;;;;;;;;;;;18.34;89.66;97254.77;1763264;80;20230;-84
2022/06/09 06:02:05;;;;;;;;;;;;;;;18.29;89.25;97249.55;1781102;79;20443;-84
2022/06/09 06:04:31;;;;;;;;;;;;;;;18.12;90.39;97256.12;1776300;79;20156;-87
2022/06/09 06:06:57;;;;;;;;;;;;;;;18.09;90.59;97259.53;1774190;79;21091;-87
2022/06/09 06:09:23;;;;;;;;;;;;;;;18.11;90.70;97260.55;1782429;79;20194;-85
2022/06/09 06:11:49;;;;;;;;;;;;;;;18.21;93.71;97254.03;1775488;79;20182;-84
2022/06/09 06:14:15;;;;;;;;;;;;;;;18.31;93.17;97255.48;1775842;80;20175;-84
2022/06/09 06:16:41;;;;;;;;;;;;;;;18.37;93.03;97253.27;1769511;79;20176;-87
2022/06/09 06:19:08;;;;;;;;;;;;;;;18.56;93.25;97253.44;1770662;80;21888;-87
2022/06/09 06:21:35;;;;;;;;;;;;;;;18.78;92.27;97253.45;1775163;79;20163;-87
2022/06/09 06:24:01;;;;;;;;;;;;;;;19.03;92.08;97249.42;1761138;79;20204;-87
2022/06/09 06:26:29;;;;;;;;;;;;;;;19.27;90.85;97247.66;1764255;80;20158;-88
2022/06/09 06:28:55;;;;;;;;;;;;;;;19.30;89.40;97252.44;1780251;79;20227;-84
2022/06/09 06:31:21;;;;;;;;;;;;;;;19.25;89.06;97255.47;1780468;79;21076;-87
2022/06/09 06:33:47;;;;;;;;;;;;;;;19.32;89.35;97256.44;1770106;78;20389;-88
2022/06/09 06:36:12;;;;;;;;;;;;;;;19.43;89.53;97258.06;1774644;80;20773;-88
2022/06/09 06:38:39;;;;;;;;;;;;;;;19.39;88.67;97258.55;1763639;79;20187;-84
2022/06/09 06:41:05;;;;;;;;;;;;;;;19.41;88.67;97257.63;1763943;79;20184;-84
2022/06/09 06:43:31;;;;;;;;;;;;;;;19.37;88.36;97262.23;1749254;79;21781;-84
2022/06/09 06:45:57;;;;;;;;;;;;;;;19.43;88.75;97258.86;1774824;80;20187;-84
2022/06/09 06:48:22;;;;;;;;;;;;;;;19.47;88.07;97258.94;1770450;78;20194;-84
2022/06/09 06:50:48;;;;;;;;;;;;;;;19.50;87.99;97256.08;1769125;79;20273;-84
2022/06/09 06:53:14;;;;;;;;;;;;;;;19.55;88.17;97264.02;1775175;79;20183;-84
2022/06/09 06:55:40;;;;;;;;;;;;;;;19.75;88.19;97256.11;1770116;78;21057;-84
2022/06/09 06:58:06;;;;;;;;;;;;;;;20.06;88.55;97252.46;1771148;78;20178;-84
2022/06/09 07:00:32;;;;;;;;;;;;;;;20.35;87.57;97250.33;1769838;79;21190;-84
2022/06/09 07:02:58;;;;;;;;;;;;;;;20.53;87.15;97246.80;1766838;79;20252;-87
2022/06/09 07:05:24;;;;;;;;;;;;;;;20.53;85.49;97246.80;1773623;79;20266;-88
2022/06/09 07:07:50;;;;;;;;;;;;;;;20.56;85.57;97246.64;1770051;79;21020;-86
2022/06/09 07:10:16;;;;;;;;;;;;;;;20.69;86.11;97248.67;1769553;79;20160;-87
2022/06/09 07:12:42;;;;;;;;;;;;;;;20.93;85.54;97251.06;1766070;80;20278;-86
2022/06/09 07:15:09;;;;;;;;;;;;;;;21.15;85.17;97246.75;1762933;79;20214;-87
2022/06/09 07:17:35;;;;;;;;;;;;;;;21.33;84.06;97245.11;1749730;80;20204;-88
2022/06/09 07:20:01;;;;;;;;;;;;;;;21.87;83.24;97238.45;1771090;79;21905;-88
2022/06/09 07:22:26;;;;;;;;;;;;;;;22.02;81.49;97236.69;1764143;79;20207;-84
2022/06/09 07:24:55;;;;;;;;;;;;;;;21.80;79.65;97241.13;1771240;79;20198;-84
2022/06/09 07:27:20;;;;;;;;;;;;;;;21.53;78.35;97251.33;1767467;78;20252;-84
2022/06/09 07:29:46;;;;;;;;;;;;;;;21.48;80.61;97245.36;1764072;79;20226;-84
2022/06/09 07:32:11;;;;;;;;;;;;;;;21.47;81.92;97250.07;1776033;79;21047;-84
2022/06/09 07:34:37;;;;;;;;;;;;;;;21.67;82.42;97250.77;1761742;78;20273;-84
2022/06/09 07:37:03;;;;;;;;;;;;;;;21.65;80.11;97258.03;1773835;79;20174;-88
2022/06/09 07:39:29;;;;;;;;;;;;;;;21.75;81.58;97252.47;1771410;79;20246;-86
2022/06/09 07:41:55;;;;;;;;;;;;;;;21.72;81.45;97251.05;1768741;79;21120;-88
2022/06/09 07:44:21;;;;;;;;;;;;;;;21.62;79.80;97250.52;1753960;80;21141;-87
2022/06/09 07:46:46;;;;;;;;;;;;;;;21.68;80.73;97249.02;1761173;79;20205;-88
2022/06/09 07:49:12;;;;;;;;;;;;;;;21.73;81.89;97247.13;1757804;78;20242;-85
2022/06/09 07:51:40;;;;;;;;;;;;;;;21.81;81.43;97250.20;1756399;79;20211;-84
2022/06/09 07:54:06;;;;;;;;;;;;;;;21.78;80.15;97255.05;1759826;79;20261;-85
2022/06/09 07:56:32;;;;;;;;;;;;;;;21.83;81.75;97251.41;1752252;79;21660;-85
2022/06/09 07:59:00;;;;;;;;;;;;;;;21.81;81.18;97250.20;1773627;79;20238;-84
2022/06/09 08:04:27;;;;;;;;;;;;;;;22.28;81.27;97243.36;1714983;78;21030;-88
2022/06/09 08:06:53;;;;;;;;;;;;;;;22.60;78.93;97241.00;1774438;79;20235;-88
2022/06/09 08:09:19;;;;;;;;;;;;;;;23.47;79.44;97237.32;1762719;79;21136;-87
2022/06/09 08:11:46;;;;;;;;;;;;;;;23.62;79.29;97237.67;1780673;79;20239;-88
2022/06/09 08:14:12;;;;;;;;;;;;;;;23.84;72.87;97238.03;1767823;80;20281;-88
2022/06/09 08:16:38;;;;;;;;;;;;;;;24.24;74.70;97236.84;1779730;80;20250;-87
2022/06/09 08:19:04;;;;;;;;;;;;;;;24.59;70.77;97245.91;1776922;79;21388;-88
2022/06/09 08:21:30;;;;;;;;;;;;;;;25.43;68.97;97244.52;1762196;79;21927;-88
2022/06/09 08:23:56;;;;;;;;;;;;;;;26.04;65.83;97243.09;1773241;79;21557;-88
2022/06/09 08:26:21;;;;;;;;;;;;;;;26.91;68.84;97236.80;1775347;80;20194;-88
2022/06/09 08:28:47;;;;;;;;;;;;;;;27.66;68.47;97241.27;1769685;79;20212;-88
2022/06/09 08:31:13;;;;;;;;;;;;;;;28.09;66.36;97241.64;1772606;79;20191;-89
2022/06/09 08:33:39;;;;;;;;;;;;;;;28.45;63.79;97233.51;1776589;79;21051;-88
2022/06/09 08:36:05;;;;;;;;;;;;;;;28.43;60.56;97226.18;1781316;79;20193;-89
2022/06/09 08:38:30;;;;;;;;;;;;;;;28.20;60.88;97226.80;1772218;80;20178;-88
2022/06/09 08:41:13;;;;;;;;;;;;;;;28.75;61.17;97229.34;1768469;79;20246;-88
2022/06/09 08:44:11;;;;;;;;;;;;;;;27.80;55.51;97232.02;1774699;79;20241;-88
2022/06/09 08:47:02;;;;;;;;;;;;;;;28.18;56.81;97225.05;1768289;79;21087;-88
2022/06/09 08:49:53;;;;;;;;;;;;;;;28.60;57.50;97226.56;1767663;79;20231;-87
2022/06/09 08:52:37;;;;;;;;;;;;;;;29.33;61.01;97219.57;1770981;79;20184;-88
2022/06/09 08:55:25;;;;;;;;;;;;;;;29.97;56.77;97224.84;1761442;80;20264;-89
2022/06/09 08:57:52;;;;;;;;;;;;;;;30.50;53.94;97220.24;1774416;79;20772;-89
2022/06/09 09:00:21;;;;;;;;;;;;;;;30.71;56.25;97229.45;1772726;79;21228;-88
2022/06/09 09:02:57;;;;;;;;;;;;;;;30.47;52.07;97228.71;1750368;79;20124;-88
2022/06/09 09:05:32;;;;;;;;;;;;;;;30.61;49.72;97230.61;1775940;79;20563;-86
2022/06/09 09:08:00;;;;;;;;;;;;;;;30.32;52.90;97227.59;1775747;79;20215;-86
2022/06/09 09:10:31;;;;;;;;;;;;;;;30.84;50.37;97231.73;1779619;79;20507;-86
2022/06/09 09:13:06;;;;;;;;;;;;;;;31.16;50.02;97229.00;1770557;79;21050;-86
2022/06/09 09:15:38;;;;;;;;;;;;;;;31.39;46.31;97233.70;1772386;79;20218;-86
2022/06/09 09:18:28;;;;;;;;;;;;;;;32.37;47.88;97237.00;1763194;80;20249;-86
2022/06/09 09:21:07;;;;;;;;;;;;;;;31.80;44.67;97235.11;1772130;79;20141;-86
2022/06/09 09:23:46;;;;;;;;;;;;;;;31.27;48.40;97227.37;1772849;79;20231;-88
2022/06/09 09:26:30;;;;;;;;;;;;;;;31.17;48.58;97235.39;1775901;79;21786;-90
2022/06/09 09:29:05;;;;;;;;;;;;;;;29.96;48.52;97241.42;1764430;79;20734;-88
2022/06/09 09:31:50;;;;;;;;;;;;;;;29.35;52.43;97236.06;1769570;79;20187;-88
2022/06/09 09:34:25;;;;;;;;;;;;;;;28.32;54.66;97248.00;1751976;80;20197;-89
2022/06/09 09:36:54;;;;;;;;;;;;;;;27.73;57.03;97239.83;1755221;79;20424;-85
2022/06/09 09:39:23;;;;;;;;;;;;;;;26.93;59.15;97242.17;1768817;79;21153;-85
2022/06/09 09:41:48;;;;;;;;;;;;;;;26.08;61.67;97241.11;1759565;79;20253;-85
2022/06/09 09:44:20;;;;;;;;;;;;;;;25.95;62.85;97237.16;1774372;79;20230;-85
2022/06/09 09:46:56;;;;;;;;;;;;;;;25.74;63.51;97236.63;1765545;80;20210;-88
2022/06/09 09:49:29;;;;;;;;;;;;;;;25.42;65.52;97242.94;1773269;78;20239;-85
2022/06/09 09:51:56;;;;;;;;;;;;;;;25.22;64.86;97243.14;1768544;80;21816;-85
2022/06/09 09:54:34;;;;;;;;;;;;;;;25.09;64.02;97246.87;1775020;79;20247;-85
2022/06/09 09:57:19;;;;;;;;;;;;;;;24.68;67.72;97249.11;1772230;78;20160;-85
2022/06/09 09:59:48;;;;;;;;;;;;;;;24.66;66.70;97251.48;1769751;79;20577;-85
2022/06/09 10:08:38;;;;;;;;;;;;;;;25.44;66.29;97244.72;1777636;79;20160;-88
2022/06/09 10:11:53;;;;;;;;;;;;;;;26.20;63.73;97242.06;1764290;79;20247;-88
2022/06/09 10:13:35;;;;;;;;;;;;;;;27.54;59.66;97246.72;1773700;79;20310;-90
2022/06/09 10:16:02;;;;;;;;;;;;;;;26.84;58.77;97239.65;1775702;78;20311;-89
2022/06/09 10:18:27;;;;;;;;;;;;;;;28.13;58.02;97236.05;1738937;80;21136;-88
2022/06/09 10:21:10;;;;;;;;;;;;;;;28.45;56.86;97237.08;1775078;79;20226;-90
2022/06/09 10:23:52;;;;;;;;;;;;;;;30.45;51.98;97229.76;1755632;79;20186;-85
2022/06/09 10:26:28;;;;;;;;;;;;;;;29.74;48.79;97236.06;1772220;80;20195;-85
2022/06/09 10:29:06;;;;;;;;;;;;;;;31.07;46.79;97235.03;1772772;79;20482;-86
2022/06/09 10:31:42;;;;;;;;;;;;;;;33.15;45.77;97232.51;1769082;78;20981;-86
2022/06/09 10:34:14;;;;;;;;;;;;;;;33.05;41.42;97233.80;1764317;79;20176;-86
2022/06/09 10:36:49;;;;;;;;;;;;;;;34.27;39.78;97235.42;1751794;79;20343;-86
2022/06/09 10:39:34;;;;;;;;;;;;;;;33.53;40.09;97240.95;1771562;77;20267;-86
2022/06/09 10:42:02;;;;;;;;;;;;;;;34.58;41.92;97240.53;1768262;79;20220;-86
2022/06/09 10:44:51;;;;;;;;;;;;;;;35.37;40.43;97239.70;1771555;79;21088;-86
2022/06/09 10:56:03;;;;;;;;;;;;;;;29.91;47.03;97243.34;1751998;79;20164;-89
2022/06/09 10:58:32;;;;;;;;;;;;;;;29.07;49.44;97249.06;1747614;79;21051;-90
2022/06/09 11:00:58;;;;;;;;;;;;;;;27.90;53.52;97249.20;1755462;79;20219;-89
2022/06/09 11:03:29;;;;;;;;;;;;;;;27.07;55.44;97248.25;1760612;79;20187;-88
2022/06/09 11:06:15;;;;;;;;;;;;;;;26.64;55.44;97253.22;1774317;79;20437;-87
2022/06/09 11:09:07;;;;;;;;;;;;;;;25.79;58.79;97255.02;1764219;79;20268;-87
2022/06/09 11:11:57;;;;;;;;;;;;;;;25.28;60.18;97257.58;1773175;79;21766;-87
2022/06/09 11:14:49;;;;;;;;;;;;;;;24.86;61.13;97255.48;1775752;79;20266;-85
2022/06/09 11:17:52;;;;;;;;;;;;;;;24.24;64.29;97250.09;1766608;79;20152;-85
2022/06/09 11:20:48;;;;;;;;;;;;;;;24.08;64.37;97255.14;1761616;79;20594;-85
2022/06/09 11:23:30;;;;;;;;;;;;;;;23.66;65.96;97262.57;1759997;78;20588;-88
2022/06/09 11:25:59;;;;;;;;;;;;;;;23.67;65.23;97260.83;1775251;79;21793;-89
2022/06/09 11:28:45;;;;;;;;;;;;;;;23.55;64.08;97266.61;1772082;78;20191;-87
2022/06/09 11:31:34;;;;;;;;;;;;;;;23.40;66.77;97261.55;1773732;79;20214;-88
2022/06/09 11:34:10;;;;;;;;;;;;;;;23.20;66.75;97264.34;1741039;79;20673;-88
2022/06/09 11:36:44;;;;;;;;;;;;;;;22.89;66.93;97256.72;1773686;79;20140;-88
2022/06/09 11:39:39;;;;;;;;;;;;;;;22.50;67.78;97246.02;1766691;79;21122;-87
2022/06/09 11:42:09;;;;;;;;;;;;;;;22.34;65.63;97236.35;1745275;80;20286;-88
2022/06/09 11:44:39;;;;;;;;;;;;;;;22.15;65.57;97230.41;1768028;79;20186;-85
2022/06/09 11:47:07;;;;;;;;;;;;;;;21.86;65.87;97227.80;1773011;79;20195;-88
2022/06/09 11:49:44;;;;;;;;;;;;;;;21.77;65.75;97230.03;1771625;80;20257;-88
2022/06/09 11:52:21;;;;;;;;;;;;;;;21.60;66.14;97229.98;1756223;79;21066;-85
2022/06/09 11:54:54;;;;;;;;;;;;;;;21.56;66.98;97229.94;1771455;78;20455;-84
2022/06/09 11:57:26;;;;;;;;;;;;;;;21.58;67.25;97229.56;1776639;78;20141;-85
2022/06/09 12:00:02;;;;;;;;;;;;;;;21.44;69.45;97233.47;1769480;79;20207;-84
2022/06/09 12:02:54;;;;;;;;;;;;;;;21.31;72.24;97239.77;1776017;79;20231;-84
2022/06/09 12:05:32;;;;;;;;;;;;;;;21.24;68.46;97251.42;1761190;79;21571;-84
2022/06/09 12:08:35;;;;;;;;;;;;;;;20.93;70.87;97264.84;1777612;79;20160;-87
2022/06/09 12:11:05;;;;;;;;;;;;;;;20.61;71.90;97278.02;1761606;80;20133;-87
2022/06/09 12:13:48;;;;;;;;;;;;;;;20.18;70.46;97293.60;1769603;78;20168;-88
2022/06/09 12:16:34;;;;;;;;;;;;;;;19.83;73.19;97288.11;1758997;79;20188;-88
2022/06/09 12:19:19;;;;;;;;;;;;;;;19.36;77.45;97288.10;1767538;79;21047;-89
2022/06/09 12:21:50;;;;;;;;;;;;;;;18.86;77.15;97283.48;1774766;79;20293;-92
2022/06/09 12:24:35;;;;;;;;;;;;;;;18.54;78.67;97283.14;1754403;79;20255;-92
2022/06/09 12:27:07;;;;;;;;;;;;;;;18.39;80.40;97283.91;1765043;79;20211;-92
2022/06/09 12:29:43;;;;;;;;;;;;;;;18.12;89.55;97283.53;1761947;80;20472;-91
2022/06/09 12:32:13;;;;;;;;;;;;;;;18.02;88.03;97283.98;1773617;79;21828;-90
2022/06/09 12:34:50;;;;;;;;;;;;;;;17.90;88.54;97274.43;1766723;79;20172;-84
2022/06/09 12:37:28;;;;;;;;;;;;;;;17.90;96.31;97268.95;1766156;78;20231;-93
2022/06/09 12:39:59;;;;;;;;;;;;;;;17.99;98.20;97252.59;1771769;79;20145;-92
2022/06/09 12:42:34;;;;;;;;;;;;;;;18.24;94.55;97262.13;1750867;80;20197;-90
2022/06/09 12:45:04;;;;;;;;;;;;;;;18.41;92.79;97282.41;1771229;80;21238;-90
2022/06/09 12:47:29;;;;;;;;;;;;;;;18.55;90.83;97287.52;1763281;80;20161;-88
2022/06/09 12:49:57;;;;;;;;;;;;;;;18.65;91.37;97291.70;1775734;79;20238;-91
2022/06/09 12:52:38;;;;;;;;;;;;;;;18.82;89.72;97293.59;1769230;80;20160;-89
2022/06/09 12:55:09;;;;;;;;;;;;;;;19.00;96.20;97300.12;1767760;79;20255;-88
2022/06/09 12:57:37;;;;;;;;;;;;;;;19.12;93.48;97296.72;1756520;80;21248;-89
2022/06/09 13:00:18;;;;;;;;;;;;;;;19.53;91.15;97291.07;1768802;79;20543;-88
2022/06/09 13:02:44;;;;;;;;;;;;;;;19.79;88.98;97297.41;1757825;80;20283;-88
2022/06/09 13:05:17;;;;;;;;;;;;;;;20.79;86.86;97294.87;1756270;79;20159;-88
2022/06/09 13:07:54;;;;;;;;;;;;;;;22.69;83.48;97274.63;1691326;83;20194;-89
2022/06/09 13:10:29;;;;;;;;;;;;;;;22.72;82.58;97265.58;1738096;81;21309;-88
2022/06/09 13:13:07;;;;;;;;;;;;;;;22.55;81.58;97260.06;1760762;80;20434;-88
2022/06/09 13:15:40;;;;;;;;;;;;;;;23.56;78.05;97264.05;1753690;79;20160;-89
2022/06/09 13:18:15;;;;;;;;;;;;;;;25.18;75.76;97263.11;1768384;80;20225;-88
2022/06/09 13:20:47;;;;;;;;;;;;;;;25.44;72.70;97265.52;1777087;80;20242;-89